Time;durP1;ratioP1;P1;durP2;ratioP2;P2;SDS_P1;SDS_P2;PMS_P1;PMS_P2;Temp;Humidity;BMP_temperature;BMP_pressure;BME280_temperature;BME280_humidity;BME280_pressure;Samples;Min_cycle;Max_cycle;Signal;HPM_P1;HPM_P2
2023/03/02 00:01:45;;;;;;;1.60;1.50;;;0.10;99.90;;;;;;5080540;28;20971;-75
2023/03/02 00:04:21;;;;;;;2.33;1.90;;;0.00;99.90;;;;;;5075255;28;20518;-75
2023/03/02 00:06:54;;;;;;;2.50;1.10;;;0.00;99.90;;;;;;5075007;28;20852;-75
2023/03/02 00:09:20;;;;;;;2.30;1.35;;;0.00;99.90;;;;;;5080716;28;21257;-75
2023/03/02 00:11:47;;;;;;;2.55;1.30;;;0.00;99.90;;;;;;5083348;28;20433;-76
2023/03/02 00:14:14;;;;;;;2.13;1.47;;;0.00;99.90;;;;;;5086101;28;20426;-75
2023/03/02 00:16:41;;;;;;;2.30;1.83;;;0.00;99.90;;;;;;5084981;28;20798;-75
2023/03/02 00:19:07;;;;;;;2.65;1.70;;;-0.10;99.90;;;;;;5085385;28;20554;-75
2023/03/02 00:21:34;;;;;;;2.05;1.92;;;0.00;99.90;;;;;;5089820;28;20426;-75
2023/03/02 00:24:01;;;;;;;1.13;1.13;;;0.00;99.90;;;;;;5084379;28;20429;-75
2023/03/02 00:26:31;;;;;;;2.85;1.25;;;0.00;99.90;;;;;;5075918;28;20522;-75
2023/03/02 00:28:58;;;;;;;3.40;1.73;;;0.00;99.90;;;;;;5070697;28;20435;-75
2023/03/02 00:31:25;;;;;;;3.37;1.33;;;0.00;99.90;;;;;;5073773;28;20485;-75
2023/03/02 00:33:55;;;;;;;1.73;1.40;;;0.10;99.90;;;;;;5079370;28;20427;-75
2023/03/02 00:36:22;;;;;;;1.77;1.50;;;0.00;99.90;;;;;;5071108;28;20519;-75
2023/03/02 00:38:56;;;;;;;2.00;1.88;;;0.10;99.90;;;;;;5084821;28;20503;-75
2023/03/02 00:41:23;;;;;;;3.28;0.93;;;0.00;99.90;;;;;;5079414;28;20422;-75
2023/03/02 00:43:50;;;;;;;4.00;1.92;;;-0.10;99.90;;;;;;5086089;28;20467;-76
2023/03/02 00:46:23;;;;;;;1.92;1.83;;;-0.10;99.90;;;;;;5077162;28;20438;-75
2023/03/02 00:48:50;;;;;;;1.42;1.33;;;-0.20;99.90;;;;;;5071286;28;20437;-76
2023/03/02 00:51:17;;;;;;;2.30;1.58;;;-0.20;99.90;;;;;;5075233;28;20478;-75
2023/03/02 00:53:44;;;;;;;3.90;2.03;;;-0.30;99.90;;;;;;5075311;28;20430;-75
2023/03/02 00:56:11;;;;;;;7.47;1.77;;;-0.30;99.90;;;;;;5083141;28;20417;-75
2023/03/02 00:58:39;;;;;;;1.50;1.40;;;-0.40;99.90;;;;;;5084048;28;20859;-75
2023/03/02 01:01:09;;;;;;;1.60;0.80;;;-0.30;99.90;;;;;;5081772;28;20438;-75
2023/03/02 01:03:36;;;;;;;1.23;1.10;;;-0.30;99.90;;;;;;5083281;28;20522;-76
2023/03/02 01:06:04;;;;;;;1.00;1.00;;;-0.20;99.90;;;;;;5082007;28;20465;-75
2023/03/02 01:08:31;;;;;;;1.52;1.38;;;-0.20;99.90;;;;;;5086575;28;20445;-75
2023/03/02 01:11:00;;;;;;;4.38;1.63;;;-0.20;99.90;;;;;;5071049;28;20804;-75
2023/03/02 01:13:28;;;;;;;2.22;1.80;;;-0.20;99.90;;;;;;5086335;28;20521;-75
2023/03/02 01:16:02;;;;;;;5.05;2.47;;;-0.20;99.90;;;;;;5080843;28;20418;-74
2023/03/02 01:18:29;;;;;;;2.63;1.38;;;-0.20;99.90;;;;;;5085527;28;20429;-75
2023/03/02 01:21:01;;;;;;;1.30;1.20;;;-0.20;99.90;;;;;;5073085;28;20499;-75
2023/03/02 01:23:30;;;;;;;3.25;2.35;;;-0.20;99.90;;;;;;5083511;28;20802;-75
2023/03/02 01:25:57;;;;;;;2.75;1.40;;;-0.20;99.90;;;;;;5080024;28;20901;-74
2023/03/02 01:28:24;;;;;;;2.88;1.55;;;-0.30;99.90;;;;;;5085503;28;20982;-74
2023/03/02 01:30:50;;;;;;;1.85;1.35;;;-0.30;99.90;;;;;;5081988;28;20434;-75
2023/03/02 01:33:17;;;;;;;2.00;1.38;;;-0.30;99.90;;;;;;5083433;28;20422;-74
2023/03/02 01:35:47;;;;;;;1.92;1.67;;;-0.20;99.90;;;;;;5081672;28;20901;-75
2023/03/02 01:38:14;;;;;;;2.78;1.40;;;-0.20;99.90;;;;;;5084319;28;20447;-74
2023/03/02 01:44:36;;;;;;;1.85;1.05;;;-0.20;99.90;;;;;;5087785;28;21203;-74
2023/03/02 01:47:32;;;;;;;1.40;1.30;;;-0.20;99.90;;;;;;5075816;28;20429;-74
2023/03/02 01:50:05;;;;;;;1.40;1.33;;;-0.20;99.90;;;;;;5080373;28;21096;-74
2023/03/02 01:52:34;;;;;;;2.85;1.92;;;-0.20;99.90;;;;;;5080845;28;20517;-74
2023/03/02 01:55:03;;;;;;;1.53;1.40;;;-0.20;99.90;;;;;;5067742;28;20422;-74
2023/03/02 01:57:42;;;;;;;1.95;1.17;;;-0.20;99.90;;;;;;5079443;28;20427;-73
2023/03/02 02:00:12;;;;;;;3.65;1.83;;;-0.20;99.90;;;;;;5076110;28;20422;-74
2023/03/02 02:02:40;;;;;;;5.07;1.35;;;-0.20;99.90;;;;;;5083885;28;20429;-72
2023/03/02 02:05:10;;;;;;;5.05;1.80;;;-0.20;99.90;;;;;;5081134;28;20424;-74
2023/03/02 02:07:37;;;;;;;3.38;2.20;;;-0.10;99.90;;;;;;5079056;28;20430;-74
2023/03/02 02:10:05;;;;;;;4.77;1.00;;;-0.20;99.90;;;;;;5082852;28;20492;-74
2023/03/02 02:12:32;;;;;;;1.67;1.58;;;-0.20;99.90;;;;;;5086213;28;20443;-74
2023/03/02 02:15:00;;;;;;;3.00;1.50;;;-0.30;99.90;;;;;;5076227;28;20421;-74
2023/03/02 02:17:33;;;;;;;2.30;1.40;;;-0.30;99.90;;;;;;5072888;28;20430;-74
2023/03/02 02:20:35;;;;;;;2.65;1.17;;;-0.30;99.90;;;;;;5077975;28;20473;-74
2023/03/02 02:23:20;;;;;;;2.30;1.50;;;-0.30;99.90;;;;;;5054325;28;20440;-74
2023/03/02 02:26:00;;;;;;;4.38;2.20;;;-0.30;99.90;;;;;;5062513;28;20551;-74
2023/03/02 02:28:36;;;;;;;2.60;1.70;;;-0.30;99.90;;;;;;5045370;28;20566;-73
2023/03/02 02:31:09;;;;;;;2.00;1.48;;;-0.30;99.90;;;;;;5041742;28;20433;-74
2023/03/02 02:33:37;;;;;;;1.48;1.33;;;-0.30;99.90;;;;;;5064184;28;20435;-74
2023/03/02 02:36:13;;;;;;;2.03;1.48;;;-0.30;99.90;;;;;;5064517;28;20423;-74
2023/03/02 02:38:41;;;;;;;2.22;1.63;;;-0.30;99.90;;;;;;5056581;28;20489;-74
2023/03/02 02:41:14;;;;;;;1.77;1.63;;;-0.30;99.90;;;;;;5058055;28;20430;-74
2023/03/02 02:43:49;;;;;;;1.52;1.42;;;-0.30;99.90;;;;;;5057958;28;20438;-74
2023/03/02 02:46:16;;;;;;;3.58;1.63;;;-0.30;99.90;;;;;;5063410;28;20462;-74
2023/03/02 02:48:43;;;;;;;4.30;1.53;;;-0.30;99.90;;;;;;5057715;28;20439;-74
2023/03/02 02:51:15;;;;;;;1.57;1.47;;;-0.20;99.90;;;;;;5056196;28;20566;-74
2023/03/02 02:53:48;;;;;;;3.85;2.25;;;-0.20;99.90;;;;;;5053460;28;20439;-74
2023/03/02 02:56:17;;;;;;;1.48;1.38;;;-0.20;99.90;;;;;;5061397;28;20465;-74
2023/03/02 02:58:48;;;;;;;2.15;1.23;;;-0.20;99.90;;;;;;5068727;28;20514;-74
2023/03/02 03:01:18;;;;;;;1.27;1.15;;;-0.20;99.90;;;;;;5074958;28;20457;-74
2023/03/02 03:04:03;;;;;;;2.47;1.70;;;-0.30;99.90;;;;;;5086546;28;20429;-74
2023/03/02 03:06:37;;;;;;;3.45;1.45;;;-0.30;99.90;;;;;;5087407;28;20429;-73
2023/03/02 03:09:05;;;;;;;1.77;1.38;;;-0.30;99.90;;;;;;5075717;28;20442;-74
2023/03/02 03:11:40;;;;;;;2.22;2.03;;;-0.40;99.90;;;;;;5083848;28;20890;-74
2023/03/02 03:14:11;;;;;;;1.98;1.58;;;-0.40;99.90;;;;;;5070581;28;20517;-73
2023/03/02 03:16:40;;;;;;;2.42;1.42;;;-0.40;99.90;;;;;;5082920;28;20513;-74
2023/03/02 03:19:23;;;;;;;4.65;0.93;;;-0.40;99.90;;;;;;5082316;28;20418;-74
2023/03/02 03:21:53;;;;;;;1.98;1.58;;;-0.50;99.90;;;;;;5073693;28;20431;-73
2023/03/02 03:24:21;;;;;;;3.20;1.55;;;-0.60;99.90;;;;;;5082321;28;20426;-73
2023/03/02 03:26:48;;;;;;;1.33;1.23;;;-0.60;99.90;;;;;;5084678;28;20431;-74
2023/03/02 03:29:16;;;;;;;2.42;2.15;;;-0.70;99.90;;;;;;5079511;28;20438;-74
2023/03/02 03:31:44;;;;;;;1.85;1.58;;;-0.70;99.90;;;;;;5078082;28;20850;-74
2023/03/02 03:34:11;;;;;;;1.60;1.50;;;-0.80;99.90;;;;;;5062388;28;20446;-73
2023/03/02 03:36:37;;;;;;;1.60;1.50;;;-0.90;99.90;;;;;;5077413;28;20446;-74
2023/03/02 03:39:05;;;;;;;1.70;1.20;;;-0.90;99.90;;;;;;5072106;28;20431;-73
2023/03/02 03:41:32;;;;;;;1.80;1.70;;;-0.90;99.90;;;;;;5086069;28;20515;-73
2023/03/02 03:43:59;;;;;;;1.70;0.90;;;-1.00;99.90;;;;;;5080794;28;20422;-73
2023/03/02 03:46:26;;;;;;;0.80;0.80;;;-1.00;99.90;;;;;;5081592;28;20426;-73
2023/03/02 03:48:56;;;;;;;1.40;1.30;;;-1.10;99.90;;;;;;5085051;28;20422;-74
2023/03/02 03:51:23;;;;;;;1.90;1.30;;;-1.20;99.90;;;;;;5084994;28;20426;-73
2023/03/02 03:53:58;;;;;;;1.60;0.82;;;-1.20;99.90;;;;;;5067891;28;20444;-73
2023/03/02 03:56:27;;;;;;;3.03;1.10;;;-1.20;99.90;;;;;;5079063;28;20954;-73
2023/03/02 03:59:05;;;;;;;3.60;1.85;;;-1.30;99.90;;;;;;5080350;28;20447;-73
2023/03/02 04:02:00;;;;;;;4.50;1.42;;;-1.20;99.90;;;;;;5071326;28;20964;-73
2023/03/02 04:04:29;;;;;;;3.13;1.92;;;-1.20;99.90;;;;;;5079202;28;20479;-73
2023/03/02 04:06:57;;;;;;;1.77;1.65;;;-1.10;99.90;;;;;;5082527;28;20425;-74
2023/03/02 04:09:24;;;;;;;1.90;1.40;;;-1.10;99.90;;;;;;5089001;28;20426;-73
2023/03/02 04:11:53;;;;;;;2.05;1.17;;;-1.00;99.90;;;;;;5077110;28;20455;-74
2023/03/02 04:14:24;;;;;;;1.30;1.20;;;-1.00;99.90;;;;;;5075128;28;20422;-73
2023/03/02 04:16:51;;;;;;;2.60;1.65;;;-1.00;99.90;;;;;;5074824;28;20519;-73
2023/03/02 04:19:20;;;;;;;0.98;0.95;;;-0.90;99.90;;;;;;5073952;28;20432;-73
2023/03/02 04:21:51;;;;;;;1.15;1.00;;;-0.80;99.90;;;;;;5077854;28;20801;-73
2023/03/02 04:24:21;;;;;;;2.17;1.80;;;-0.80;99.90;;;;;;5077852;28;21004;-73
2023/03/02 04:26:49;;;;;;;5.13;2.05;;;-0.80;99.90;;;;;;5083534;28;20929;-72
2023/03/02 04:29:17;;;;;;;1.27;1.25;;;-0.70;99.90;;;;;;5086125;28;20424;-73
2023/03/02 04:31:43;;;;;;;2.50;1.50;;;-0.60;99.90;;;;;;5076427;28;20454;-73
2023/03/02 04:34:10;;;;;;;4.15;1.40;;;-0.50;99.90;;;;;;5075626;28;20422;-73
2023/03/02 04:36:39;;;;;;;2.17;1.33;;;-0.40;99.90;;;;;;5079132;28;20462;-73
2023/03/02 04:39:06;;;;;;;1.70;1.13;;;-0.40;99.90;;;;;;5081822;28;20457;-73
2023/03/02 04:41:37;;;;;;;3.35;2.53;;;-0.40;99.90;;;;;;5078093;28;20521;-73
2023/03/02 04:44:04;;;;;;;1.92;1.83;;;-0.40;99.90;;;;;;5078787;28;21006;-73
2023/03/02 04:46:33;;;;;;;2.03;1.52;;;-0.30;99.90;;;;;;5086734;28;20431;-72
2023/03/02 04:49:00;;;;;;;4.05;1.40;;;-0.40;99.90;;;;;;5082404;28;20468;-73
2023/03/02 04:51:36;;;;;;;1.30;1.20;;;-0.40;99.90;;;;;;5080477;28;20429;-72
2023/03/02 04:54:07;;;;;;;1.33;1.27;;;-0.50;99.90;;;;;;5075509;28;20968;-73
2023/03/02 04:56:34;;;;;;;2.55;1.50;;;-0.40;99.90;;;;;;5081885;28;20443;-73
2023/03/02 04:59:03;;;;;;;5.82;1.92;;;-0.40;99.90;;;;;;5085343;28;20839;-73
2023/03/02 05:01:30;;;;;;;3.00;1.20;;;-0.40;99.90;;;;;;5076774;28;20455;-73
2023/03/02 05:04:03;;;;;;;2.60;2.37;;;-0.40;99.90;;;;;;5081670;28;20427;-72
2023/03/02 05:06:30;;;;;;;1.50;1.23;;;-0.40;99.90;;;;;;5066980;28;20542;-73
2023/03/02 05:08:58;;;;;;;2.97;1.25;;;-0.50;99.90;;;;;;5081905;28;20491;-73
2023/03/02 05:11:26;;;;;;;1.50;1.35;;;-0.50;99.90;;;;;;5089362;28;20430;-72
2023/03/02 05:13:59;;;;;;;4.60;1.70;;;-0.50;99.90;;;;;;5079662;28;20980;-73
2023/03/02 05:16:27;;;;;;;2.07;1.50;;;-0.60;99.90;;;;;;5083570;28;20422;-73
2023/03/02 05:18:55;;;;;;;1.50;1.45;;;-0.60;99.90;;;;;;5078015;28;20430;-73
2023/03/02 05:21:22;;;;;;;3.90;1.10;;;-0.70;99.90;;;;;;5069976;28;20435;-73
2023/03/02 05:23:49;;;;;;;1.47;1.30;;;-0.80;99.90;;;;;;5070830;28;20438;-72
2023/03/02 05:26:16;;;;;;;1.10;1.00;;;-0.90;99.90;;;;;;5076772;28;20521;-73
2023/03/02 05:28:44;;;;;;;1.67;1.13;;;-0.90;99.90;;;;;;5081561;28;20438;-73
2023/03/02 05:31:20;;;;;;;2.17;1.23;;;-0.80;99.90;;;;;;5071718;28;20512;-73
2023/03/02 05:33:47;;;;;;;1.15;1.10;;;-0.80;99.90;;;;;;5077026;28;20528;-73
2023/03/02 05:36:14;;;;;;;2.45;1.55;;;-0.80;99.90;;;;;;5084601;28;20435;-73
2023/03/02 05:38:44;;;;;;;2.00;1.20;;;-0.90;99.90;;;;;;5085303;28;20514;-73
2023/03/02 05:41:14;;;;;;;2.03;1.42;;;-0.90;99.90;;;;;;5090191;28;20519;-73
2023/03/02 05:43:41;;;;;;;3.10;1.38;;;-1.00;99.90;;;;;;5072983;28;20477;-73
2023/03/02 05:46:09;;;;;;;1.20;1.10;;;-1.00;99.90;;;;;;5070115;28;20937;-72
2023/03/02 05:48:36;;;;;;;2.60;1.20;;;-1.10;99.90;;;;;;5076575;28;20422;-73
2023/03/02 05:51:03;;;;;;;1.40;1.30;;;-1.00;99.90;;;;;;5078903;28;20501;-72
2023/03/02 05:53:30;;;;;;;1.85;1.42;;;-1.10;99.90;;;;;;5078659;28;20981;-73
2023/03/02 05:55:57;;;;;;;1.08;0.98;;;-1.10;99.90;;;;;;5072195;28;20858;-72
2023/03/02 05:58:24;;;;;;;1.33;1.10;;;-1.00;99.90;;;;;;5073984;28;21019;-73
2023/03/02 06:00:51;;;;;;;1.48;1.20;;;-1.00;99.90;;;;;;5086320;28;20437;-72
2023/03/02 06:03:18;;;;;;;1.58;1.48;;;-0.90;99.90;;;;;;5083870;28;20434;-72
2023/03/02 06:05:49;;;;;;;1.17;1.17;;;-0.80;99.90;;;;;;5085924;28;20426;-72
2023/03/02 06:08:17;;;;;;;1.55;1.45;;;-0.80;99.90;;;;;;5080980;28;20433;-72
2023/03/02 06:10:44;;;;;;;4.47;1.67;;;-0.80;99.90;;;;;;5083106;28;20575;-71
2023/03/02 06:13:11;;;;;;;1.42;1.33;;;-0.80;99.90;;;;;;5093190;28;20424;-72
2023/03/02 06:15:39;;;;;;;2.50;1.58;;;-0.70;99.90;;;;;;5091249;28;20433;-72
2023/03/02 06:18:06;;;;;;;1.88;1.70;;;-0.60;99.90;;;;;;5075826;28;20431;-71
2023/03/02 06:20:33;;;;;;;1.38;0.95;;;-0.60;99.90;;;;;;5082366;28;21024;-72
2023/03/02 06:22:59;;;;;;;3.90;1.27;;;-0.50;99.90;;;;;;5070954;28;20470;-72
2023/03/02 06:25:26;;;;;;;1.58;1.48;;;-0.50;99.90;;;;;;5081956;28;20507;-72
2023/03/02 06:27:53;;;;;;;4.47;1.40;;;-0.50;99.90;;;;;;5075096;28;20510;-72
2023/03/02 06:30:22;;;;;;;2.35;1.67;;;-0.40;99.90;;;;;;5080839;28;20433;-71
2023/03/02 06:32:49;;;;;;;1.15;1.10;;;-0.30;99.90;;;;;;5080974;28;20432;-71
2023/03/02 06:35:16;;;;;;;1.70;1.42;;;-0.20;99.90;;;;;;5075017;28;20515;-71
2023/03/02 06:37:43;;;;;;;1.52;1.42;;;-0.10;99.90;;;;;;5082173;28;20427;-71
2023/03/02 06:40:12;;;;;;;3.05;2.10;;;-0.10;99.90;;;;;;5074852;28;20483;-71
2023/03/02 06:42:40;;;;;;;3.88;1.33;;;0.00;99.90;;;;;;5077301;28;20507;-71
2023/03/02 06:45:08;;;;;;;2.55;1.40;;;0.00;99.90;;;;;;5078815;28;20493;-72
2023/03/02 06:47:35;;;;;;;1.17;1.17;;;0.10;99.90;;;;;;5080498;28;20499;-72
2023/03/02 06:50:03;;;;;;;1.85;1.48;;;0.20;99.90;;;;;;5079364;28;20431;-71
2023/03/02 06:52:35;;;;;;;1.90;1.42;;;0.20;99.90;;;;;;5074940;28;20921;-72
2023/03/02 06:55:03;;;;;;;1.63;1.52;;;0.30;99.90;;;;;;5076403;28;20492;-72
2023/03/02 06:57:32;;;;;;;4.20;2.15;;;0.50;99.90;;;;;;5075627;28;20427;-71
2023/03/02 07:00:23;;;;;;;2.45;1.15;;;0.60;99.90;;;;;;5081025;28;20457;-71
2023/03/02 07:02:51;;;;;;;1.90;1.52;;;0.70;99.90;;;;;;5083730;28;20881;-72
2023/03/02 07:05:19;;;;;;;1.43;1.30;;;0.90;99.90;;;;;;5071605;28;20425;-72
2023/03/02 07:07:45;;;;;;;2.42;1.35;;;1.30;99.90;;;;;;5084983;28;20515;-71
2023/03/02 07:10:12;;;;;;;3.13;1.48;;;1.60;99.90;;;;;;5077382;28;20455;-72
2023/03/02 07:12:40;;;;;;;2.08;1.77;;;1.90;99.90;;;;;;5080495;28;20427;-72
2023/03/02 07:15:10;;;;;;;3.15;1.30;;;2.10;99.90;;;;;;5079474;28;20434;-72
2023/03/02 07:17:37;;;;;;;1.80;1.13;;;2.30;99.90;;;;;;5074196;28;20427;-71
2023/03/02 07:20:05;;;;;;;4.75;2.35;;;2.50;99.90;;;;;;5066035;28;20433;-71
2023/03/02 07:22:32;;;;;;;4.50;2.05;;;2.70;99.90;;;;;;5077294;28;20964;-71
2023/03/02 07:25:01;;;;;;;1.45;1.38;;;2.90;99.90;;;;;;5075874;28;20504;-71
2023/03/02 07:27:28;;;;;;;1.10;1.08;;;3.10;99.90;;;;;;5075090;28;20902;-71
2023/03/02 07:29:55;;;;;;;3.80;1.42;;;3.20;99.90;;;;;;5072528;28;20435;-71
2023/03/02 07:32:23;;;;;;;1.63;1.23;;;3.20;99.90;;;;;;5075481;28;20444;-71
2023/03/02 07:34:50;;;;;;;1.40;1.38;;;3.30;99.90;;;;;;5068393;28;20433;-72
2023/03/02 07:37:17;;;;;;;3.80;1.35;;;3.50;99.90;;;;;;5071320;28;20430;-71
2023/03/02 07:39:48;;;;;;;1.92;1.60;;;3.60;99.90;;;;;;5067818;28;20627;-71
2023/03/02 07:42:17;;;;;;;2.08;1.73;;;3.80;99.90;;;;;;5077705;28;20461;-71
2023/03/02 07:44:44;;;;;;;3.03;1.42;;;3.80;99.90;;;;;;5075594;28;20517;-71
2023/03/02 07:47:11;;;;;;;1.85;1.10;;;4.00;99.90;;;;;;5077356;28;20988;-72
2023/03/02 07:49:38;;;;;;;2.53;1.80;;;4.00;99.90;;;;;;5079594;28;20462;-72
2023/03/02 07:52:05;;;;;;;1.30;1.20;;;4.10;99.90;;;;;;5084640;28;20796;-72
2023/03/02 07:54:31;;;;;;;2.00;1.70;;;4.20;99.90;;;;;;5084193;28;20430;-71
2023/03/02 07:56:58;;;;;;;3.70;1.97;;;4.50;99.90;;;;;;5088862;28;20503;-71
2023/03/02 07:59:27;;;;;;;1.20;1.10;;;4.60;99.90;;;;;;5093896;28;20470;-71
2023/03/02 08:01:57;;;;;;;2.10;1.63;;;4.80;99.90;;;;;;5078529;28;20457;-71
2023/03/02 08:04:24;;;;;;;3.60;1.50;;;4.80;99.90;;;;;;5075964;28;20415;-71
2023/03/02 08:06:51;;;;;;;1.50;1.40;;;4.80;99.90;;;;;;5076729;28;20454;-71
2023/03/02 08:09:18;;;;;;;3.23;1.67;;;4.70;99.90;;;;;;5068007;28;20515;-70
2023/03/02 08:11:46;;;;;;;3.00;1.58;;;4.80;99.90;;;;;;5076774;28;20937;-71
2023/03/02 08:14:13;;;;;;;2.05;1.67;;;4.70;99.90;;;;;;5087323;28;20428;-71
2023/03/02 08:16:40;;;;;;;4.95;2.15;;;4.70;99.90;;;;;;5071586;28;20420;-71
2023/03/02 08:19:07;;;;;;;2.10;1.50;;;4.90;99.90;;;;;;5075879;28;20852;-72
2023/03/02 08:21:34;;;;;;;4.25;1.50;;;5.10;99.90;;;;;;5079939;28;20464;-72
2023/03/02 08:24:01;;;;;;;2.55;1.77;;;5.40;99.90;;;;;;5084123;28;20448;-72
2023/03/02 08:26:29;;;;;;;3.80;1.83;;;5.40;99.90;;;;;;5077650;28;20433;-71
2023/03/02 08:28:55;;;;;;;2.35;1.80;;;5.50;99.90;;;;;;5080511;28;20450;-72
2023/03/02 08:31:22;;;;;;;2.40;1.88;;;5.60;99.90;;;;;;5076004;28;20417;-72
2023/03/02 08:33:49;;;;;;;2.70;1.70;;;5.80;99.90;;;;;;5073262;28;20425;-72
2023/03/02 08:36:18;;;;;;;4.70;2.47;;;6.10;99.90;;;;;;5073295;28;20428;-72
2023/03/02 08:38:46;;;;;;;2.13;1.73;;;6.20;99.90;;;;;;5070489;28;20502;-72
2023/03/02 08:41:16;;;;;;;3.78;2.03;;;6.10;99.90;;;;;;5077625;28;20905;-72
2023/03/02 08:43:43;;;;;;;1.77;1.67;;;6.20;99.90;;;;;;5069930;28;20462;-72
2023/03/02 08:46:11;;;;;;;7.20;2.20;;;6.20;99.90;;;;;;5088564;28;20443;-72
2023/03/02 08:48:39;;;;;;;3.25;2.10;;;6.30;99.90;;;;;;5078192;28;20917;-72
2023/03/02 08:51:09;;;;;;;2.40;1.60;;;6.50;99.90;;;;;;5072044;28;20436;-72
2023/03/02 08:53:39;;;;;;;4.72;1.73;;;6.70;99.90;;;;;;5085556;28;20965;-72
2023/03/02 08:56:31;;;;;;;1.90;1.27;;;6.90;99.90;;;;;;5085009;28;20469;-72
2023/03/02 08:59:02;;;;;;;2.97;2.13;;;7.10;99.90;;;;;;5069490;28;20481;-73
2023/03/02 09:01:33;;;;;;;2.50;1.90;;;7.30;99.90;;;;;;5070648;28;20424;-73
2023/03/02 09:04:01;;;;;;;4.25;2.33;;;7.30;99.90;;;;;;5083040;28;20431;-74
2023/03/02 09:06:29;;;;;;;2.37;1.60;;;7.40;99.90;;;;;;5084610;28;20426;-73
2023/03/02 09:08:56;;;;;;;2.38;2.00;;;7.40;99.90;;;;;;5079541;28;20490;-73
2023/03/02 09:11:24;;;;;;;3.00;2.10;;;7.70;99.90;;;;;;5071975;28;20441;-74
2023/03/02 09:13:50;;;;;;;2.67;2.05;;;7.50;99.90;;;;;;5079915;28;20457;-75
2023/03/02 09:16:19;;;;;;;2.72;2.50;;;7.40;99.90;;;;;;5081472;28;20430;-73
2023/03/02 09:18:46;;;;;;;2.20;2.00;;;7.40;99.90;;;;;;5088676;28;20508;-74
2023/03/02 09:21:13;;;;;;;3.25;2.05;;;6.90;99.90;;;;;;5087695;28;20437;-74
2023/03/02 09:23:40;;;;;;;1.70;1.60;;;7.20;99.90;;;;;;5078734;28;20786;-74
2023/03/02 09:26:07;;;;;;;1.63;1.52;;;7.40;99.90;;;;;;5072877;28;20439;-75
2023/03/02 09:28:35;;;;;;;3.53;2.25;;;7.40;99.90;;;;;;5070288;28;20508;-75
2023/03/02 09:31:04;;;;;;;4.65;1.63;;;7.80;99.90;;;;;;5074670;28;20482;-75
2023/03/02 09:33:31;;;;;;;2.22;2.03;;;8.00;99.90;;;;;;5074322;28;20434;-75
2023/03/02 09:35:58;;;;;;;2.20;2.10;;;8.00;99.90;;;;;;5082854;28;20430;-75
2023/03/02 09:38:25;;;;;;;3.13;2.15;;;8.20;99.90;;;;;;5074535;28;20428;-75
2023/03/02 09:41:27;;;;;;;3.90;2.20;;;8.30;99.90;;;;;;5085153;28;20452;-75
2023/03/02 09:44:24;;;;;;;4.80;2.53;;;8.40;99.90;;;;;;5080479;28;20474;-75
2023/03/02 09:46:59;;;;;;;3.30;2.15;;;8.40;99.90;;;;;;5077903;28;20925;-76
2023/03/02 09:49:46;;;;;;;5.43;1.92;;;8.40;99.90;;;;;;5077561;28;20490;-75
2023/03/02 09:52:34;;;;;;;2.22;2.03;;;8.80;99.90;;;;;;5077907;28;20456;-76
2023/03/02 09:55:14;;;;;;;3.08;1.90;;;8.50;99.90;;;;;;5075073;28;20772;-76
2023/03/02 09:57:42;;;;;;;4.70;2.55;;;8.50;99.90;;;;;;5079291;28;20424;-76
2023/03/02 10:00:17;;;;;;;2.92;2.20;;;8.80;99.90;;;;;;5079894;28;20433;-75
2023/03/02 10:02:55;;;;;;;3.42;2.22;;;9.20;99.90;;;;;;5071600;28;20427;-75
2023/03/02 10:05:41;;;;;;;2.93;1.90;;;9.40;99.90;;;;;;5078545;28;20435;-75
2023/03/02 10:08:24;;;;;;;4.38;2.50;;;9.80;99.90;;;;;;5069073;28;20485;-75
2023/03/02 10:11:16;;;;;;;4.55;2.15;;;9.90;99.90;;;;;;5085345;28;20426;-75
2023/03/02 10:14:07;;;;;;;8.20;2.10;;;10.30;99.90;;;;;;5075873;28;20428;-75
2023/03/02 10:16:40;;;;;;;5.40;2.77;;;10.40;99.90;;;;;;5075060;28;20511;-75
2023/03/02 10:19:12;;;;;;;5.00;2.33;;;10.70;99.90;;;;;;5067527;28;20427;-75
2023/03/02 10:21:40;;;;;;;2.53;2.00;;;9.90;99.90;;;;;;5074817;28;20425;-75
2023/03/02 10:24:13;;;;;;;2.65;2.03;;;9.80;99.90;;;;;;5072419;28;22459;-66
2023/03/02 10:26:47;;;;;;;2.85;1.80;;;10.10;99.90;;;;;;5074625;28;20429;-66
2023/03/02 10:29:31;;;;;;;3.80;2.13;;;10.70;99.90;;;;;;5073291;28;20614;-66
2023/03/02 10:32:09;;;;;;;6.35;2.65;;;11.00;99.90;;;;;;5076160;28;20512;-66
2023/03/02 10:34:37;;;;;;;2.55;2.35;;;11.20;99.90;;;;;;5076936;28;20435;-66
2023/03/02 10:37:14;;;;;;;4.53;2.72;;;11.40;99.90;;;;;;5068356;28;20436;-67
2023/03/02 10:39:41;;;;;;;4.70;2.70;;;11.30;99.90;;;;;;5068525;28;20922;-66
2023/03/02 10:42:17;;;;;;;2.92;2.15;;;;;;;;;;5069854;28;20547;-66
2023/03/02 10:44:49;;;;;;;3.25;1.92;;;;;;;;;;5076553;28;20428;-66
2023/03/02 10:47:28;;;;;;;3.15;2.40;;;;;;;;;;5075450;28;20518;-66
2023/03/02 10:49:56;;;;;;;3.00;2.30;;;;;;;;;;5081895;28;20438;-64
2023/03/02 10:52:24;;;;;;;2.45;1.90;;;;;;;;;;5069313;28;20463;-66
2023/03/02 10:55:02;;;;;;;3.20;2.22;;;;;;;;;;5068975;28;20430;-67
2023/03/02 10:57:34;;;;;;;2.63;1.67;;;;;;;;;;5073920;28;20501;-67
2023/03/02 11:00:04;;;;;;;4.97;2.83;;;;;;;;;;5081507;28;20425;-66
2023/03/02 11:02:36;;;;;;;4.50;2.33;;;11.60;99.90;;;;;;5085738;28;20421;-67
2023/03/02 11:05:21;;;;;;;4.15;2.42;;;12.20;99.90;;;;;;5072316;28;20461;-65
2023/03/02 11:07:52;;;;;;;3.43;2.20;;;;;;;;;;5076113;28;20427;-66
2023/03/02 11:10:22;;;;;;;5.22;2.58;;;;;;;;;;5079688;28;20439;-66
2023/03/02 11:12:50;;;;;;;5.17;2.50;;;;;;;;;;5071370;28;20449;-66
2023/03/02 11:15:24;;;;;;;3.67;2.60;;;;;;;;;;5079737;28;20493;-66
2023/03/02 11:18:11;;;;;;;5.35;2.33;;;;;;;;;;5084849;28;20453;-66
2023/03/02 11:20:46;;;;;;;3.38;2.35;;;;;;;;;;5080404;28;20449;-66
2023/03/02 11:23:37;;;;;;;4.15;2.45;;;;;;;;;;5080388;28;20900;-65
2023/03/02 11:26:17;;;;;;;5.43;2.97;;;;;;;;;;5080354;28;20482;-65
2023/03/02 11:28:51;;;;;;;5.93;2.60;;;;;;;;;;5079913;28;20838;-65
2023/03/02 11:31:27;;;;;;;2.65;2.40;;;;;;;;;;5090912;28;20432;-65
2023/03/02 11:34:10;;;;;;;4.57;2.78;;;;;;;;;;5083556;28;20782;-65
2023/03/02 11:36:48;;;;;;;4.63;2.42;;;;;;;;;;5076263;28;20493;-65
2023/03/02 11:39:20;;;;;;;4.53;2.55;;;;;;;;;;5074567;28;20475;-65
2023/03/02 11:41:47;;;;;;;3.28;2.80;;;;;;;;;;5081519;28;20428;-67
2023/03/02 11:44:19;;;;;;;4.90;3.40;;;;;;;;;;5077926;28;20450;-66
2023/03/02 11:46:51;;;;;;;5.77;2.60;;;;;;;;;;5079449;28;20454;-65
2023/03/02 11:49:24;;;;;;;3.90;2.28;;;;;;;;;;5085505;28;20491;-64
2023/03/02 11:51:58;;;;;;;2.80;2.20;;;;;;;;;;5082249;28;20445;-63
2023/03/02 11:54:35;;;;;;;2.90;2.13;;;;;;;;;;5074920;28;20426;-64
2023/03/02 11:57:03;;;;;;;4.22;2.42;;;;;;;;;;5075340;28;20437;-63
2023/03/02 11:59:30;;;;;;;2.17;1.97;;;;;;;;;;5075231;28;20431;-64
2023/03/02 12:01:59;;;;;;;2.22;2.03;;;;;;;;;;5073574;28;20435;-64
2023/03/02 12:04:34;;;;;;;3.93;2.53;;;;;;;;;;5065750;28;20897;-63
2023/03/02 12:07:03;;;;;;;4.05;2.08;;;;;;;;;;5082350;28;20439;-63
2023/03/02 12:09:35;;;;;;;2.47;2.17;;;;;;;;;;5083538;28;20512;-63
2023/03/02 12:12:23;;;;;;;3.33;2.08;;;;;;;;;;5081739;28;20433;-63
2023/03/02 12:14:51;;;;;;;7.13;2.28;;;;;;;;;;5075200;28;20438;-64
2023/03/02 12:17:21;;;;;;;8.25;1.85;;;;;;;;;;5076045;28;20439;-64
2023/03/02 12:19:49;;;;;;;4.00;2.00;;;;;;;;;;5072999;28;20430;-64
2023/03/02 12:22:25;;;;;;;2.58;2.35;;;;;;;;;;5075890;28;20434;-64
2023/03/02 12:24:59;;;;;;;2.47;2.25;;;;;;;;;;5081188;28;20422;-64
2023/03/02 12:27:27;;;;;;;3.50;2.50;;;;;;;;;;5075819;28;20434;-63
2023/03/02 12:30:08;;;;;;;4.88;2.67;;;12.80;99.90;;;;;;5086933;28;20436;-63
2023/03/02 12:32:35;;;;;;;2.38;2.17;;;14.20;99.90;;;;;;5078113;28;20500;-64
2023/03/02 12:35:11;;;;;;;5.50;2.63;;;;;;;;;;5070612;28;20800;-64
2023/03/02 12:37:50;;;;;;;2.92;2.35;;;;;;;;;;5083083;28;20813;-64
2023/03/02 12:40:35;;;;;;;3.85;2.20;;;;;;;;;;5071029;28;20450;-63
2023/03/02 12:43:20;;;;;;;2.40;1.95;;;;;;;;;;5070017;28;20431;-63
2023/03/02 12:46:07;;;;;;;6.18;3.22;;;;;;;;;;5082385;28;20430;-63
2023/03/02 12:48:47;;;;;;;3.20;2.60;;;;;;;;;;5074876;28;20836;-64
2023/03/02 12:51:23;;;;;;;4.07;1.88;;;;;;;;;;5079620;28;20467;-64
2023/03/02 12:54:01;;;;;;;2.42;2.13;;;;;;;;;;5072803;28;20427;-64
2023/03/02 12:56:28;;;;;;;4.85;2.30;;;;;;;;;;5084154;28;20434;-64
2023/03/02 12:58:55;;;;;;;3.45;3.15;;;;;;;;;;5072227;28;20433;-64
2023/03/02 13:01:24;;;;;;;3.55;2.60;;;;;;;;;;5084548;28;20431;-63
2023/03/02 13:03:52;;;;;;;2.55;1.90;;;;;;;;;;5073441;28;20433;-63
2023/03/02 13:06:21;;;;;;;8.02;2.13;;;;;;;;;;5079609;28;20430;-64
2023/03/02 13:08:53;;;;;;;2.10;1.90;;;;;;;;;;5070675;28;20431;-64
2023/03/02 13:11:26;;;;;;;2.22;2.13;;;;;;;;;;5081778;28;20440;-65
2023/03/02 13:13:54;;;;;;;2.95;1.85;;;;;;;;;;5076237;28;20434;-65
2023/03/02 13:16:26;;;;;;;2.92;2.20;;;;;;;;;;5073584;28;20431;-65
2023/03/02 13:18:56;;;;;;;2.47;1.77;;;;;;;;;;5084335;28;20429;-66
2023/03/02 13:21:31;;;;;;;7.10;2.10;;;;;;;;;;5071125;28;20510;-65
2023/03/02 13:23:58;;;;;;;3.47;1.87;;;14.00;99.90;;;;;;5075079;28;20457;-66
2023/03/02 13:26:28;;;;;;;3.13;1.90;;;15.10;99.90;;;;;;5071890;28;20426;-66
2023/03/02 13:29:18;;;;;;;5.03;2.10;;;15.60;99.90;;;;;;5074750;28;20433;-65
2023/03/02 13:31:45;;;;;;;2.50;1.70;;;;;;;;;;5081271;28;20430;-65
2023/03/02 13:34:32;;;;;;;2.97;1.75;;;;;;;;;;5075861;28;20501;-63